Time;durP1;ratioP1;P1;durP2;ratioP2;P2;SDS_P1;SDS_P2;PMS_P1;PMS_P2;Temp;Humidity;BMP_temperature;BMP_pressure;BME280_temperature;BME280_humidity;BME280_pressure;Samples;Min_cycle;Max_cycle;Signal;HPM_P1;HPM_P2
2022/05/22 00:00:07;;;;;;;8.35;5.20;;;;;;;20.85;51.26;95186.03;5088506;28;20789;-84
2022/05/22 00:02:33;;;;;;;7.28;5.10;;;;;;;20.78;51.65;95184.53;5086682;28;20032;-83
2022/05/22 00:04:58;;;;;;;8.90;5.53;;;;;;;20.79;51.56;95187.03;5070515;28;20024;-84
2022/05/22 00:07:24;;;;;;;7.68;4.68;;;;;;;20.80;51.73;95185.09;5069646;28;20031;-83
2022/05/22 00:09:49;;;;;;;6.00;4.88;;;;;;;20.82;51.59;95189.25;5088171;28;20081;-82
2022/05/22 00:12:15;;;;;;;6.65;5.03;;;;;;;20.79;51.67;95180.75;5087712;28;20085;-82
2022/05/22 00:14:40;;;;;;;6.57;4.63;;;;;;;20.74;51.80;95184.22;5088055;28;20410;-80
2022/05/22 00:17:08;;;;;;;6.53;5.47;;;;;;;20.70;51.96;95183.88;5086241;28;20012;-82
2022/05/22 00:19:33;;;;;;;7.28;5.60;;;;;;;20.65;52.21;95180.25;5086288;28;20039;-84
2022/05/22 00:21:59;;;;;;;7.57;4.90;;;;;;;20.65;51.85;95178.34;5087102;28;20028;-82
2022/05/22 00:24:25;;;;;;;7.00;5.05;;;;;;;20.58;52.24;95173.06;5087252;28;20020;-82
2022/05/22 00:26:50;;;;;;;6.47;5.07;;;;;;;20.57;52.14;95174.13;5086346;28;20483;-83
2022/05/22 00:29:16;;;;;;;9.82;5.63;;;;;;;20.53;52.34;95172.97;5087269;28;20497;-81
2022/05/22 00:31:42;;;;;;;5.93;5.07;;;;;;;20.48;52.42;95170.16;5087651;28;20027;-82
2022/05/22 00:34:08;;;;;;;7.35;5.50;;;;;;;20.41;52.73;95170.31;5085859;28;20479;-81
2022/05/22 00:36:33;;;;;;;9.70;5.75;;;;;;;20.38;52.71;95165.38;5087594;28;20036;-81
2022/05/22 00:38:58;;;;;;;7.07;5.47;;;;;;;20.35;52.71;95182.19;5087446;28;20020;-82
2022/05/22 00:41:24;;;;;;;8.90;5.80;;;;;;;20.31;52.83;95170.16;5087066;28;20020;-82
2022/05/22 00:43:51;;;;;;;5.72;4.80;;;;;;;20.26;53.08;95173.63;5087988;28;20031;-83
2022/05/22 00:46:17;;;;;;;9.30;5.90;;;;;;;20.23;53.03;95179.56;5068615;28;20111;-82
2022/05/22 00:48:44;;;;;;;7.78;5.47;;;;;;;20.21;53.50;95173.53;5086291;28;20396;-82
2022/05/22 00:51:13;;;;;;;9.10;5.53;;;;;;;20.13;53.50;95172.81;5085246;28;20024;-81
2022/05/22 00:53:45;;;;;;;6.50;5.38;;;;;;;20.12;53.86;95176.63;5069557;28;20110;-83
2022/05/22 00:56:12;;;;;;;6.15;5.45;;;;;;;20.08;53.82;95178.19;5069786;28;20110;-84
2022/05/22 00:58:38;;;;;;;7.95;5.95;;;;;;;20.04;53.89;95171.56;5069032;28;20107;-83
2022/05/22 01:01:03;;;;;;;8.82;5.43;;;;;;;20.08;53.66;95170.03;5086439;28;20031;-84
2022/05/22 01:03:29;;;;;;;8.40;5.72;;;;;;;20.02;53.86;95181.88;5086741;28;20067;-86
2022/05/22 01:06:24;;;;;;;7.65;5.80;;;;;;;19.97;54.04;95179.03;5087625;28;20078;-84
2022/05/22 01:08:49;;;;;;;7.28;5.72;;;;;;;19.83;54.20;95176.59;5086033;28;20020;-83
2022/05/22 01:11:25;;;;;;;8.45;5.78;;;;;;;19.84;54.38;95178.28;5085387;28;20119;-83
2022/05/22 01:13:55;;;;;;;6.90;5.63;;;;;;;19.80;54.16;95168.94;5087758;28;20502;-84
2022/05/22 01:16:20;;;;;;;10.30;5.75;;;;;;;19.80;54.70;95181.72;5068320;28;20475;-83
2022/05/22 01:18:51;;;;;;;6.75;5.30;;;;;;;19.72;54.54;95175.59;5087197;28;20057;-81
2022/05/22 01:21:24;;;;;;;6.88;5.18;;;;;;;19.81;54.20;95169.75;5086610;28;20052;-82
2022/05/22 01:23:50;;;;;;;7.82;5.70;;;;;;;19.80;54.39;95160.75;5086855;28;20028;-82
2022/05/22 01:26:16;;;;;;;5.80;5.20;;;;;;;19.73;54.59;95168.25;5085095;28;20035;-84
2022/05/22 01:28:41;;;;;;;10.30;5.13;;;;;;;19.72;54.54;95164.69;5086704;28;20525;-83
2022/05/22 01:31:07;;;;;;;7.13;4.55;;;;;;;19.75;54.62;95174.25;5068589;28;20031;-85
2022/05/22 01:33:34;;;;;;;7.53;5.30;;;;;;;19.77;54.96;95170.25;5086008;28;20036;-82
2022/05/22 01:36:00;;;;;;;5.63;4.72;;;;;;;19.79;54.44;95167.28;5087179;28;20123;-82
2022/05/22 01:38:25;;;;;;;7.30;5.30;;;;;;;19.79;54.49;95166.44;5084887;28;20479;-83
2022/05/22 01:40:50;;;;;;;10.40;4.85;;;;;;;19.75;55.12;95171.53;5086808;28;20028;-82
2022/05/22 01:43:16;;;;;;;8.40;5.28;;;;;;;19.77;54.95;95169.41;5085787;28;20077;-83
2022/05/22 01:45:42;;;;;;;7.90;5.55;;;;;;;19.78;54.78;95168.34;5086412;28;20551;-81
2022/05/22 01:48:07;;;;;;;6.40;4.97;;;;;;;19.72;55.07;95169.31;5085180;28;20050;-82
2022/05/22 01:50:33;;;;;;;6.60;5.20;;;;;;;19.68;54.78;95176.31;5085683;28;20027;-82
2022/05/22 01:52:58;;;;;;;5.55;4.70;;;;;;;19.71;54.11;95176.66;5085564;28;20532;-82
2022/05/22 01:55:24;;;;;;;9.90;4.60;;;;;;;19.74;54.13;95173.44;5085253;28;20024;-83
2022/05/22 01:57:49;;;;;;;6.22;4.60;;;;;;;19.75;53.86;95176.97;5086753;28;20023;-82
2022/05/22 02:00:17;;;;;;;8.32;4.50;;;;;;;19.77;53.32;95172.13;5085737;28;20024;-83
2022/05/22 02:02:42;;;;;;;6.07;4.30;;;;;;;19.82;52.67;95177.69;5086720;28;20116;-81
2022/05/22 02:05:08;;;;;;;6.15;4.10;;;;;;;19.81;52.65;95184.19;5086292;28;20016;-82
2022/05/22 02:10:18;;;;;;;7.20;4.30;;;;;;;19.78;52.44;95184.66;5086650;28;20027;-82
2022/05/22 02:12:43;;;;;;;6.03;3.97;;;;;;;19.80;52.12;95179.00;5085460;28;20035;-83
2022/05/22 02:15:09;;;;;;;4.50;3.83;;;;;;;19.82;52.11;95180.41;5086717;28;20032;-81
2022/05/22 02:17:34;;;;;;;7.40;3.97;;;;;;;19.82;52.10;95176.84;5085455;28;20032;-82
2022/05/22 02:20:00;;;;;;;7.88;4.45;;;;;;;19.63;52.65;95190.63;5086321;28;20020;-81
2022/05/22 02:22:25;;;;;;;6.30;4.18;;;;;;;19.63;52.11;95190.63;5085636;28;20031;-81
2022/05/22 02:24:51;;;;;;;5.50;4.05;;;;;;;19.62;51.99;95184.34;5067581;28;20024;-83
2022/05/22 02:27:17;;;;;;;6.32;4.10;;;;;;;19.69;51.19;95186.09;5086464;28;20032;-81
2022/05/22 02:29:42;;;;;;;6.68;4.18;;;;;;;19.64;50.58;95189.56;5085175;28;20031;-82
2022/05/22 02:32:08;;;;;;;6.30;4.10;;;;;;;19.61;50.39;95195.47;5086556;28;20039;-82
2022/05/22 02:34:33;;;;;;;7.05;3.80;;;;;;;19.62;50.08;95186.25;5085527;28;20024;-81
2022/05/22 02:36:59;;;;;;;5.20;3.72;;;;;;;19.62;49.93;95189.78;5086366;28;20031;-82
2022/05/22 02:39:25;;;;;;;5.18;3.67;;;;;;;19.63;49.37;95186.03;5085197;28;20430;-82
2022/05/22 02:41:50;;;;;;;5.20;3.10;;;;;;;19.61;48.70;95182.72;5086149;28;20031;-82
2022/05/22 02:44:15;;;;;;;5.25;3.28;;;;;;;19.63;48.38;95179.75;5085967;28;20472;-84
2022/05/22 02:46:41;;;;;;;4.70;3.60;;;;;;;19.69;47.61;95178.78;5085566;28;20043;-84
2022/05/22 02:49:07;;;;;;;5.03;3.30;;;;;;;19.74;46.48;95189.78;5086343;28;20048;-84
2022/05/22 02:51:33;;;;;;;4.75;3.10;;;;;;;19.79;46.55;95190.94;5088950;28;20492;-83
2022/05/22 02:53:58;;;;;;;7.35;3.00;;;;;;;19.79;45.76;95191.78;5090257;28;20338;-82
2022/05/22 02:56:24;;;;;;;6.15;2.97;;;;;;;19.82;45.34;95190.44;5089003;28;20024;-84
2022/05/22 02:58:49;;;;;;;3.17;2.53;;;;;;;19.84;44.75;95189.16;5088525;28;20028;-84
2022/05/22 03:01:15;;;;;;;6.32;2.97;;;;;;;19.84;44.80;95193.75;5089548;28;20023;-84
2022/05/22 03:03:40;;;;;;;5.95;2.70;;;;;;;19.89;44.78;95202.84;5071591;28;20111;-84
2022/05/22 03:08:50;;;;;;;3.83;3.10;;;;;;;19.80;44.75;95201.56;5088847;28;20061;-86
2022/05/22 03:11:15;;;;;;;6.35;3.00;;;;;;;19.81;44.56;95200.53;5089957;28;20020;-88
2022/05/22 03:13:41;;;;;;;4.75;2.95;;;;;;;19.80;44.45;95200.78;5088787;28;20077;-84
2022/05/22 03:16:07;;;;;;;4.43;3.00;;;;;;;19.83;44.16;95195.66;5089830;28;20012;-84
2022/05/22 03:18:32;;;;;;;3.60;2.72;;;;;;;19.81;43.00;95205.13;5088929;28;20028;-81
2022/05/22 03:20:58;;;;;;;5.28;2.80;;;;;;;19.82;42.53;95196.72;5087819;28;20059;-83
2022/05/22 03:23:23;;;;;;;5.47;2.45;;;;;;;19.82;42.59;95210.34;5089231;28;20773;-84
2022/05/22 03:25:48;;;;;;;4.57;2.60;;;;;;;19.81;41.75;95205.97;5088640;28;20040;-83
2022/05/22 03:28:14;;;;;;;5.13;2.55;;;;;;;19.81;41.79;95195.09;5088463;28;20061;-83
2022/05/22 03:30:40;;;;;;;5.57;2.55;;;;;;;19.84;41.41;95194.59;5088198;28;20432;-84
2022/05/22 03:33:05;;;;;;;3.70;2.50;;;;;;;19.91;41.29;95208.03;5088408;28;20023;-83
2022/05/22 03:35:31;;;;;;;4.90;2.53;;;;;;;19.95;41.19;95211.94;5070400;28;20027;-84
2022/05/22 03:37:56;;;;;;;4.82;2.10;;;;;;;20.01;39.76;95216.41;5087491;28;20047;-84
2022/05/22 03:40:22;;;;;;;5.15;2.53;;;;;;;19.99;39.98;95218.53;5086998;28;20031;-86
2022/05/22 03:42:47;;;;;;;4.35;2.15;;;;;;;20.03;39.22;95215.38;5087251;28;20024;-86
2022/05/22 03:45:12;;;;;;;3.90;1.83;;;;;;;20.07;38.65;95213.84;5087552;28;20060;-83
2022/05/22 03:47:41;;;;;;;7.93;2.08;;;;;;;20.14;38.59;95217.22;5087981;28;20042;-82
2022/05/22 03:50:07;;;;;;;3.85;2.17;;;;;;;20.18;38.07;95206.69;5089211;28;20081;-83
2022/05/22 03:52:34;;;;;;;4.57;2.10;;;;;;;20.16;38.55;95216.97;5086710;28;20430;-83
2022/05/22 03:54:59;;;;;;;3.35;1.98;;;;;;;20.19;38.73;95211.88;5088653;28;20048;-83
2022/05/22 03:57:25;;;;;;;5.57;2.28;;;;;;;20.17;38.70;95210.47;5088200;28;20027;-82
2022/05/22 03:59:50;;;;;;;4.25;2.10;;;;;;;20.21;38.86;95217.06;5087042;28;20134;-82
2022/05/22 04:02:15;;;;;;;7.72;2.17;;;;;;;20.23;38.73;95217.66;5087480;28;20058;-83
2022/05/22 04:04:41;;;;;;;5.18;2.35;;;;;;;20.27;37.98;95216.09;5088071;28;20024;-82
2022/05/22 04:07:06;;;;;;;5.15;2.50;;;;;;;20.35;38.21;95209.44;5088368;28;20069;-82
2022/05/22 04:09:32;;;;;;;5.32;2.20;;;;;;;20.34;37.29;95219.50;5086347;28;20089;-83
2022/05/22 04:11:57;;;;;;;5.85;2.17;;;;;;;20.35;38.00;95221.16;5086884;28;20035;-84
2022/05/22 04:14:23;;;;;;;7.07;2.00;;;;;;;20.32;37.97;95218.94;5087585;28;20043;-82
2022/05/22 04:16:49;;;;;;;2.47;1.80;;;;;;;20.36;37.50;95222.81;5088452;28;20025;-83
2022/05/22 04:19:15;;;;;;;3.53;2.30;;;;;;;20.43;37.53;95227.25;5085919;28;20453;-83
2022/05/22 04:21:41;;;;;;;4.30;2.20;;;;;;;20.43;37.60;95228.09;5086759;28;20054;-85
2022/05/22 04:27:10;;;;;;;6.05;2.35;;;;;;;20.39;38.66;95216.06;5024524;28;20048;-83
2022/05/22 04:29:36;;;;;;;3.95;2.38;;;;;;;20.39;39.27;95224.22;5025547;28;20487;-83
2022/05/22 04:32:03;;;;;;;3.47;2.13;;;;;;;20.33;41.74;95228.72;5042068;28;20040;-84
2022/05/22 04:34:28;;;;;;;4.38;2.53;;;;;;;20.28;40.91;95228.63;5087538;28;20031;-84
2022/05/22 04:36:53;;;;;;;5.60;2.38;;;;;;;20.29;41.49;95234.91;5086832;28;20028;-83
2022/05/22 04:39:19;;;;;;;3.63;2.30;;;;;;;20.30;41.86;95229.22;5069081;28;20034;-83
2022/05/22 04:41:44;;;;;;;3.60;2.30;;;;;;;20.32;42.82;95240.72;5088362;28;20089;-82
2022/05/22 04:44:10;;;;;;;4.35;2.00;;;;;;;20.30;41.37;95231.13;5087061;28;20024;-83
2022/05/22 04:46:35;;;;;;;3.42;2.08;;;;;;;20.35;40.07;95225.78;5088100;28;20027;-84
2022/05/22 04:49:01;;;;;;;3.95;2.28;;;;;;;20.38;39.74;95230.72;5086336;28;20036;-84
2022/05/22 04:51:26;;;;;;;5.18;2.08;;;;;;;20.48;39.20;95238.25;5052656;28;20040;-82
2022/05/22 04:53:51;;;;;;;3.03;2.13;;;;;;;20.59;38.30;95228.38;5085871;28;20035;-84
2022/05/22 04:56:17;;;;;;;3.85;2.22;;;;;;;20.66;38.25;95237.22;5085923;28;20096;-82
2022/05/22 04:58:42;;;;;;;7.20;2.10;;;;;;;20.79;37.78;95233.34;5086221;28;20024;-83
2022/05/22 05:01:09;;;;;;;3.75;2.20;;;;;;;20.91;38.15;95229.72;5085407;28;20059;-83
2022/05/22 05:03:34;;;;;;;2.58;1.52;;;;;;;21.54;36.48;95224.13;5087821;28;20395;-83
2022/05/22 05:05:59;;;;;;;3.28;1.98;;;;;;;21.53;36.22;95227.09;5086707;28;20090;-85
2022/05/22 05:08:26;;;;;;;3.88;1.85;;;;;;;21.33;36.70;95234.75;5087137;28;20570;-84
2022/05/22 05:10:52;;;;;;;3.10;1.70;;;;;;;21.29;36.71;95227.31;5068447;28;20112;-82
2022/05/22 05:13:18;;;;;;;3.22;1.90;;;;;;;21.24;36.78;95244.44;5086900;28;20098;-84
2022/05/22 05:15:44;;;;;;;3.13;1.67;;;;;;;21.22;37.05;95235.66;5085506;28;20409;-83
2022/05/22 05:18:09;;;;;;;3.28;1.80;;;;;;;21.21;36.71;95234.03;5086809;28;20727;-83
2022/05/22 05:20:35;;;;;;;3.20;1.75;;;;;;;21.16;36.31;95239.41;5087211;28;20024;-83
2022/05/22 05:23:06;;;;;;;3.13;1.38;;;;;;;21.15;36.63;95244.00;5085063;28;20032;-83
2022/05/22 05:25:32;;;;;;;4.95;1.58;;;;;;;21.15;37.67;95240.47;5087027;28;20020;-83
2022/05/22 05:27:57;;;;;;;3.40;1.63;;;;;;;21.11;38.23;95240.97;5086177;28;20024;-83
2022/05/22 05:30:23;;;;;;;4.57;1.95;;;;;;;21.10;37.79;95241.22;5085381;28;20058;-82
2022/05/22 05:32:53;;;;;;;2.67;1.40;;;;;;;20.98;37.53;95238.56;5086458;28;20035;-82
2022/05/22 05:35:19;;;;;;;2.72;1.45;;;;;;;20.97;37.25;95239.66;5084936;28;20028;-84
2022/05/22 05:37:46;;;;;;;3.80;1.40;;;;;;;20.91;37.11;95241.44;5086451;28;20023;-82
2022/05/22 05:40:12;;;;;;;4.20;1.42;;;;;;;20.85;37.18;95236.97;5086077;28;20028;-83
2022/05/22 05:42:37;;;;;;;3.28;1.70;;;;;;;20.85;36.91;95240.53;5086664;28;20039;-83
2022/05/22 05:45:05;;;;;;;2.67;1.42;;;;;;;20.85;36.75;95245.16;5084405;28;20161;-81
2022/05/22 05:47:31;;;;;;;4.80;1.67;;;;;;;20.78;36.90;95245.31;5086459;28;20024;-86
2022/05/22 05:49:56;;;;;;;4.28;1.98;;;;;;;20.78;37.21;95250.75;5067617;28;20473;-83
2022/05/22 05:52:22;;;;;;;3.17;1.83;;;;;;;20.73;37.38;95248.78;5086146;28;20040;-83
2022/05/22 05:54:47;;;;;;;3.47;1.45;;;;;;;20.78;38.22;95249.94;5085820;28;20043;-82
2022/05/22 05:57:15;;;;;;;4.45;1.70;;;;;;;20.81;38.52;95261.16;5086399;28;20024;-83
2022/05/22 05:59:42;;;;;;;3.65;1.73;;;;;;;20.76;37.75;95255.66;5086467;28;20020;-82
2022/05/22 06:02:13;;;;;;;2.65;1.70;;;;;;;20.75;37.84;95262.16;5085968;28;20031;-83
2022/05/22 06:04:39;;;;;;;3.08;1.95;;;;;;;20.68;37.84;95258.78;5086517;28;20027;-84
2022/05/22 06:07:05;;;;;;;6.03;1.80;;;;;;;20.68;39.14;95266.94;5084557;28;20122;-83
2022/05/22 06:09:30;;;;;;;4.45;1.90;;;;;;;20.73;38.48;95253.41;5084841;28;20035;-83
2022/05/22 06:11:56;;;;;;;3.42;1.77;;;;;;;20.74;38.35;95264.06;5086039;28;20028;-82
2022/05/22 06:14:21;;;;;;;4.57;1.92;;;;;;;20.76;37.87;95255.66;5086306;28;20617;-82
2022/05/22 06:16:47;;;;;;;6.05;1.85;;;;;;;20.74;38.64;95250.44;5086178;28;20552;-82
2022/05/22 06:19:12;;;;;;;4.60;1.75;;;;;;;20.70;38.19;95260.16;5085630;28;20036;-83
2022/05/22 06:21:38;;;;;;;6.65;1.75;;;;;;;20.77;38.01;95260.00;5086339;28;20387;-82
2022/05/22 06:24:04;;;;;;;4.35;1.60;;;;;;;20.77;38.28;95253.72;5085331;28;20031;-83
2022/05/22 06:26:29;;;;;;;7.28;1.70;;;;;;;20.83;37.78;95252.78;5089860;28;20437;-83
2022/05/22 06:28:55;;;;;;;5.10;1.70;;;;;;;20.84;37.50;95263.41;5071728;28;20039;-83
2022/05/22 06:31:20;;;;;;;5.35;1.80;;;;;;;20.81;38.16;95261.16;5090199;28;20036;-82
2022/05/22 06:33:46;;;;;;;4.65;1.50;;;;;;;20.90;37.80;95258.88;5092410;28;20028;-83
2022/05/22 06:36:13;;;;;;;5.03;1.70;;;;;;;21.01;37.69;95253.63;5089899;28;20034;-82
2022/05/22 06:41:23;;;;;;;4.00;1.67;;;;;;;21.18;36.75;95242.72;5089676;28;20046;-83
2022/05/22 06:43:51;;;;;;;5.22;1.70;;;;;;;21.22;37.27;95252.03;5089941;28;20024;-82
2022/05/22 06:46:18;;;;;;;3.28;1.52;;;;;;;21.28;37.02;95248.28;5089452;28;20444;-83
2022/05/22 06:48:43;;;;;;;7.70;1.80;;;;;;;21.39;36.76;95249.28;5089260;28;20056;-83
2022/05/22 06:51:09;;;;;;;2.85;1.88;;;;;;;21.49;37.19;95245.88;5089559;28;20028;-82
2022/05/22 06:53:34;;;;;;;4.03;1.70;;;;;;;21.82;36.98;95243.34;5087713;28;20028;-82
2022/05/22 06:56:00;;;;;;;2.60;1.70;;;;;;;22.22;36.45;95235.88;5090009;28;20028;-84
2022/05/22 06:58:25;;;;;;;3.53;1.55;;;;;;;22.31;36.12;95231.59;5089043;28;20020;-83
2022/05/22 07:00:54;;;;;;;2.60;1.63;;;;;;;22.25;35.48;95238.09;5089928;28;20028;-83
2022/05/22 07:03:19;;;;;;;8.77;1.85;;;;;;;22.19;35.20;95239.97;5089004;28;20410;-83
2022/05/22 07:05:45;;;;;;;3.03;1.40;;;;;;;22.22;35.82;95235.88;5089171;28;20023;-84
2022/05/22 07:08:10;;;;;;;6.70;1.70;;;;;;;22.23;36.03;95235.63;5087626;28;20032;-82
2022/05/22 07:13:20;;;;;;;4.70;1.60;;;;;;;22.35;34.82;95226.47;5090158;28;20039;-83
2022/05/22 07:15:46;;;;;;;4.10;1.60;;;;;;;22.28;34.86;95220.38;5088307;28;20021;-83
2022/05/22 07:18:11;;;;;;;6.95;1.60;;;;;;;22.31;34.24;95226.16;5088240;28;20024;-83
2022/05/22 07:20:36;;;;;;;5.82;1.45;;;;;;;22.29;34.80;95225.59;5087287;28;20028;-83
2022/05/22 07:23:02;;;;;;;5.10;1.67;;;;;;;22.35;34.56;95238.22;5087655;28;20434;-82
2022/05/22 07:25:27;;;;;;;5.32;1.80;;;;;;;22.41;34.72;95230.88;5087475;28;20085;-81
2022/05/22 07:27:53;;;;;;;4.15;1.60;;;;;;;22.45;34.22;95229.31;5088943;28;20048;-83
2022/05/22 07:30:18;;;;;;;4.90;1.35;;;;;;;22.50;34.26;95234.00;5089183;28;20042;-84
2022/05/22 07:32:44;;;;;;;6.63;1.45;;;;;;;22.55;34.29;95235.94;5087410;28;20020;-83
2022/05/22 07:35:10;;;;;;;1.98;1.40;;;;;;;22.56;33.92;95238.44;5087981;28;20023;-83
2022/05/22 07:37:35;;;;;;;4.80;1.90;;;;;;;22.59;33.98;95239.81;5086888;28;20024;-85
2022/05/22 07:40:00;;;;;;;6.68;1.88;;;;;;;22.70;34.29;95235.28;5087679;28;20431;-84
2022/05/22 07:42:26;;;;;;;5.05;1.45;;;;;;;22.91;33.58;95225.34;5088463;28;20650;-83
2022/05/22 07:44:51;;;;;;;4.90;1.20;;;;;;;22.93;33.34;95236.03;5087040;28;20032;-83
2022/05/22 07:47:17;;;;;;;4.72;1.70;;;;;;;22.79;34.73;95230.19;5086950;28;20498;-83
2022/05/22 07:52:27;;;;;;;3.40;1.70;;;;;;;22.64;35.19;95225.41;5088022;28;20497;-86
2022/05/22 07:54:52;;;;;;;5.70;1.45;;;;;;;22.56;35.31;95218.47;5087829;28;20028;-86
2022/05/22 07:57:18;;;;;;;4.30;2.08;;;;;;;22.46;36.24;95211.00;5088785;28;20023;-85
2022/05/22 07:59:43;;;;;;;5.43;1.90;;;;;;;22.44;37.06;95213.19;5069937;28;20043;-83
2022/05/22 08:02:12;;;;;;;2.55;1.50;;;;;;;22.39;37.38;95200.28;5086991;28;20497;-82
2022/05/22 08:04:38;;;;;;;3.97;1.70;;;;;;;22.36;37.52;95198.06;5088113;28;20035;-82
2022/05/22 08:07:04;;;;;;;4.30;1.85;;;;;;;22.28;37.88;95188.41;5086567;28;20031;-82
2022/05/22 08:09:29;;;;;;;3.38;1.88;;;;;;;22.23;37.22;95189.19;5070255;28;20398;-83
2022/05/22 08:11:55;;;;;;;3.67;1.83;;;;;;;22.16;37.42;95182.28;5069307;28;20036;-82
2022/05/22 08:14:21;;;;;;;4.03;2.00;;;;;;;22.07;37.79;95176.47;5086731;28;20081;-81
2022/05/22 08:16:46;;;;;;;7.40;1.50;;;;;;;21.99;38.01;95185.94;5087860;28;20024;-83
2022/05/22 08:19:11;;;;;;;6.65;2.33;;;;;;;21.88;38.35;95181.47;5087758;28;20036;-83
2022/05/22 08:21:37;;;;;;;3.95;1.55;;;;;;;21.82;38.37;95170.47;5086104;28;20032;-82
2022/05/22 08:24:03;;;;;;;4.07;1.65;;;;;;;21.79;38.32;95176.44;5087934;28;20058;-82
2022/05/22 08:26:28;;;;;;;2.95;1.50;;;;;;;21.82;38.38;95165.00;5069675;28;20043;-80
2022/05/22 08:28:54;;;;;;;3.38;1.60;;;;;;;21.84;38.60;95172.94;5086345;28;20024;-82
2022/05/22 08:31:19;;;;;;;4.55;1.95;;;;;;;21.84;39.08;95176.47;5088132;28;20027;-82
2022/05/22 08:33:45;;;;;;;5.80;2.30;;;;;;;21.81;39.18;95170.72;5087013;28;20028;-82
2022/05/22 08:36:11;;;;;;;3.92;1.90;;;;;;;21.79;39.50;95172.88;5087656;28;20104;-82
2022/05/22 08:38:36;;;;;;;5.72;1.98;;;;;;;21.77;39.10;95173.13;5068738;28;20028;-82
2022/05/22 08:41:04;;;;;;;4.25;1.92;;;;;;;21.71;39.41;95169.50;5087796;28;20460;-82
2022/05/22 08:43:34;;;;;;;5.55;1.80;;;;;;;21.65;39.63;95175.94;5087349;28;20058;-82
2022/05/22 08:46:41;;;;;;;3.58;1.90;;;;;;;21.57;40.09;95169.03;5087140;28;20440;-81
2022/05/22 08:49:14;;;;;;;6.50;2.25;;;;;;;21.47;40.38;95169.72;5047266;28;20073;-82
2022/05/22 08:51:51;;;;;;;4.78;1.73;;;;;;;21.44;40.78;95175.69;5085738;28;20027;-82
2022/05/22 08:54:48;;;;;;;5.38;2.47;;;;;;;21.39;40.71;95177.53;5085835;28;20448;-82
2022/05/22 09:00:07;;;;;;;5.72;2.03;;;;;;;21.27;41.54;95178.47;5072293;28;20519;-82
2022/05/22 09:02:34;;;;;;;9.02;2.10;;;;;;;21.32;41.37;95180.44;5087449;28;20024;-83
2022/05/22 09:05:07;;;;;;;4.97;2.08;;;;;;;21.36;41.39;95185.16;5085571;28;20410;-81
2022/05/22 09:07:35;;;;;;;4.38;1.90;;;;;;;21.39;41.27;95180.28;5086770;28;20494;-81
2022/05/22 09:10:05;;;;;;;2.72;1.90;;;;;;;21.45;41.68;95185.53;5087564;28;20074;-81
2022/05/22 09:12:45;;;;;;;4.22;2.38;;;;;;;21.47;41.83;95177.13;5085110;28;20120;-82
2022/05/22 09:15:40;;;;;;;9.70;2.13;;;;;;;21.47;42.61;95179.84;5087040;28;20062;-83
2022/05/22 09:18:24;;;;;;;4.65;2.10;;;;;;;21.52;42.15;95176.34;5085270;28;20020;-82
2022/05/22 09:20:49;;;;;;;4.80;2.35;;;;;;;21.58;41.78;95178.06;5086468;28;20506;-82
2022/05/22 09:23:17;;;;;;;3.90;1.90;;;;;;;21.58;40.94;95176.16;5087282;28;20035;-82
2022/05/22 09:26:01;;;;;;;6.65;2.40;;;;;;;21.62;41.20;95162.81;5086340;28;20032;-81
2022/05/22 09:28:33;;;;;;;7.20;2.20;;;;;;;21.66;40.74;95165.88;5086834;28;20024;-82
2022/05/22 09:31:23;;;;;;;7.20;2.10;;;;;;;21.77;40.83;95167.69;5086426;28;20694;-83
2022/05/22 09:34:04;;;;;;;5.00;2.28;;;;;;;21.90;40.81;95171.09;5085960;28;20027;-83
2022/05/22 09:36:55;;;;;;;5.38;2.28;;;;;;;22.15;39.88;95156.06;5086917;28;20425;-82
2022/05/22 09:39:45;;;;;;;4.38;2.30;;;;;;;22.33;39.71;95155.69;5084848;28;20019;-83
2022/05/22 09:42:36;;;;;;;6.00;2.30;;;;;;;22.44;39.63;95139.41;5086798;28;20036;-82
2022/05/22 09:45:35;;;;;;;5.60;2.00;;;;;;;22.68;38.73;95136.34;5085849;28;20032;-81
2022/05/22 09:48:22;;;;;;;4.28;2.00;;;;;;;22.94;38.65;95131.06;5086042;28;20028;-82
2022/05/22 09:50:50;;;;;;;5.40;2.65;;;;;;;23.16;39.05;95125.44;5086468;28;20036;-84
2022/05/22 09:53:45;;;;;;;7.47;2.80;;;;;;;23.42;38.05;95116.56;5086622;28;20071;-84
2022/05/22 09:56:17;;;;;;;5.50;2.03;;;;;;;23.55;36.91;95110.59;5083634;28;20051;-82
2022/05/22 09:59:38;;;;;;;7.20;2.20;;;;;;;23.89;37.22;95111.25;5085161;28;20165;-84
2022/05/22 10:02:33;;;;;;;6.00;1.70;;;;;;;24.13;36.00;95113.50;5031512;28;20083;-83
2022/05/22 10:05:12;;;;;;;4.20;1.70;;;;;;;24.31;35.32;95110.25;5047959;28;20189;-83
2022/05/22 10:07:44;;;;;;;5.20;1.80;;;;;;;24.22;35.44;95106.41;5086238;28;20047;-82
2022/05/22 10:10:26;;;;;;;6.70;1.77;;;;;;;24.11;35.58;95094.59;5084633;28;20456;-82
2022/05/22 10:13:05;;;;;;;;;;;;;;;24.00;34.70;95101.16;5084713;28;20032;-82
2022/05/22 10:15:44;;;;;;;4.32;1.70;;;;;;;23.86;36.24;95107.13;5085273;28;20291;-83
2022/05/22 10:18:28;;;;;;;5.20;1.83;;;;;;;23.83;36.31;95094.81;5084497;28;20098;-82
2022/05/22 10:21:12;;;;;;;2.70;1.88;;;;;;;23.77;36.66;95101.38;5084596;28;20035;-84
2022/05/22 10:23:56;;;;;;;4.20;1.88;;;;;;;23.81;36.86;95091.50;5086219;28;20199;-83
2022/05/22 10:26:52;;;;;;;4.50;1.95;;;;;;;23.83;36.22;95089.34;5085987;28;20054;-83
2022/05/22 10:29:22;;;;;;;2.63;1.77;;;;;;;23.85;36.46;95086.31;5085256;28;20036;-82
2022/05/22 10:31:57;;;;;;;6.20;2.00;;;;;;;23.86;35.59;95078.94;5085445;28;20063;-83
2022/05/22 10:34:49;;;;;;;4.97;1.92;;;;;;;23.86;36.22;95081.69;5084497;28;20503;-84
2022/05/22 10:37:30;;;;;;;12.20;1.80;;;;;;;23.83;36.39;95075.66;5085244;28;20043;-83
2022/05/22 10:39:57;;;;;;;4.47;1.77;;;;;;;23.87;36.73;95083.31;5083939;28;20053;-82
2022/05/22 10:42:45;;;;;;;3.92;2.10;;;;;;;23.93;36.53;95063.88;5084746;28;20028;-83
2022/05/22 10:45:33;;;;;;;6.97;1.80;;;;;;;23.94;35.77;95075.69;5084676;28;20111;-82
2022/05/22 10:48:06;;;;;;;4.30;1.73;;;;;;;24.01;35.10;95075.38;5083906;28;20039;-82
2022/05/22 10:50:32;;;;;;;5.75;1.60;;;;;;;24.05;34.33;95074.56;5085564;28;20040;-82
2022/05/22 10:52:57;;;;;;;4.65;1.63;;;;;;;24.11;34.07;95058.16;5083915;28;20043;-84
2022/05/22 10:55:28;;;;;;;8.98;2.20;;;;;;;24.12;34.16;95074.31;5067826;28;20051;-84
2022/05/22 10:58:01;;;;;;;5.03;1.70;;;;;;;24.24;33.64;95070.50;5085672;28;20032;-83
2022/05/22 11:00:26;;;;;;;6.68;2.35;;;;;;;24.43;34.37;95057.09;5085545;28;20024;-85
2022/05/22 11:02:52;;;;;;;6.25;2.45;;;;;;;24.47;35.59;95068.34;5067945;28;20032;-83
2022/05/22 11:05:27;;;;;;;4.97;1.80;;;;;;;24.61;36.44;95057.63;5083567;28;20543;-83
2022/05/22 11:07:54;;;;;;;8.48;2.25;;;;;;;24.59;35.57;95062.53;5067652;28;20020;-83
2022/05/22 11:10:28;;;;;;;6.72;1.98;;;;;;;24.61;35.62;95063.94;5083797;28;20024;-83
2022/05/22 11:13:10;;;;;;;7.53;1.85;;;;;;;24.62;35.88;95068.31;5088801;28;20118;-85
2022/05/22 11:15:39;;;;;;;;;;;;;;;24.61;34.31;95057.63;5090011;28;20088;-83
2022/05/22 11:18:06;;;;;;;4.53;1.60;;;;;;;24.38;34.67;95054.34;5088534;28;19916;-81
2022/05/22 11:20:31;;;;;;;2.90;1.67;;;;;;;24.53;35.08;95050.78;5089682;28;20035;-83
2022/05/22 11:23:12;;;;;;;3.67;1.73;;;;;;;24.48;35.13;95048.88;5088642;28;20055;-82
2022/05/22 11:25:56;;;;;;;7.57;1.80;;;;;;;24.40;34.19;95047.50;5089296;28;20028;-82
2022/05/22 11:28:30;;;;;;;5.00;1.90;;;;;;;24.36;34.62;95040.13;5089146;28;20424;-83
2022/05/22 11:31:20;;;;;;;4.20;1.45;;;;;;;24.23;34.30;95036.00;5088442;28;20052;-82
2022/05/22 11:34:07;;;;;;;11.45;1.83;;;;;;;24.17;35.78;95019.56;5087871;28;20509;-82
2022/05/22 11:37:06;;;;;;;3.45;2.63;;;;;;;24.17;35.20;95036.00;5088388;28;20057;-82
2022/05/22 11:39:55;;;;;;;4.57;2.70;;;;;;;24.11;35.15;95034.34;5088197;28;20043;-82
2022/05/22 11:42:32;;;;;;;3.40;2.22;;;;;;;24.00;35.60;95032.69;5087856;28;20040;-83
2022/05/22 11:45:08;;;;;;;8.20;1.90;;;;;;;23.96;35.46;95043.34;5086823;28;20028;-88
2022/05/22 11:47:50;;;;;;;3.65;1.80;;;;;;;23.92;36.01;95034.03;5087748;28;20111;-82
2022/05/22 11:50:53;;;;;;;4.25;2.00;;;;;;;23.68;37.10;95037.28;5087421;28;20422;-83
2022/05/22 11:53:30;;;;;;;6.10;2.10;;;;;;;23.58;36.42;95038.91;5087914;28;20145;-84
2022/05/22 11:55:58;;;;;;;4.05;1.88;;;;;;;23.45;36.97;95047.63;5088717;28;20028;-83
2022/05/22 11:58:55;;;;;;;6.93;1.90;;;;;;;23.40;36.91;95047.59;5088509;28;20433;-83
2022/05/22 12:01:31;;;;;;;6.93;2.10;;;;;;;23.27;37.28;95038.78;5086520;28;20043;-84
2022/05/22 12:04:05;;;;;;;4.82;2.20;;;;;;;23.11;37.52;95037.06;5087544;28;20028;-84